sensor_id;sensor_type;location;lat;lon;timestamp;temperature;humidity
12893;DHT22;6514;48.606;9.222;2022-09-01T00:01:34;13.80;99.90
12893;DHT22;6514;48.606;9.222;2022-09-01T00:04:03;13.80;99.90
12893;DHT22;6514;48.606;9.222;2022-09-01T00:06:31;13.80;99.90
12893;DHT22;6514;48.606;9.222;2022-09-01T00:09:00;13.80;99.90
12893;DHT22;6514;48.606;9.222;2022-09-01T00:11:29;13.80;99.90
12893;DHT22;6514;48.606;9.222;2022-09-01T00:13:57;13.80;99.90
12893;DHT22;6514;48.606;9.222;2022-09-01T00:16:25;13.70;99.90
12893;DHT22;6514;48.606;9.222;2022-09-01T00:18:53;13.70;99.90
12893;DHT22;6514;48.606;9.222;2022-09-01T00:21:23;13.70;99.90
12893;DHT22;6514;48.606;9.222;2022-09-01T00:23:50;13.60;99.90
12893;DHT22;6514;48.606;9.222;2022-09-01T00:26:17;13.60;99.90
12893;DHT22;6514;48.606;9.222;2022-09-01T00:28:44;13.70;99.90
12893;DHT22;6514;48.606;9.222;2022-09-01T00:31:11;13.60;99.90
12893;DHT22;6514;48.606;9.222;2022-09-01T00:33:40;13.70;99.90
12893;DHT22;6514;48.606;9.222;2022-09-01T00:36:08;13.70;99.90
12893;DHT22;6514;48.606;9.222;2022-09-01T00:38:35;13.70;99.90
12893;DHT22;6514;48.606;9.222;2022-09-01T00:41:02;13.70;99.90
12893;DHT22;6514;48.606;9.222;2022-09-01T00:43:38;13.60;99.90
12893;DHT22;6514;48.606;9.222;2022-09-01T00:46:08;13.70;99.90
12893;DHT22;6514;48.606;9.222;2022-09-01T00:48:35;13.60;99.90
12893;DHT22;6514;48.606;9.222;2022-09-01T00:51:05;13.50;99.90
12893;DHT22;6514;48.606;9.222;2022-09-01T00:53:33;13.50;99.90
12893;DHT22;6514;48.606;9.222;2022-09-01T00:56:01;13.50;99.90
12893;DHT22;6514;48.606;9.222;2022-09-01T00:58:28;13.40;99.90
12893;DHT22;6514;48.606;9.222;2022-09-01T01:00:55;13.40;99.90
12893;DHT22;6514;48.606;9.222;2022-09-01T01:03:22;13.40;99.90
12893;DHT22;6514;48.606;9.222;2022-09-01T01:05:52;13.40;99.90
12893;DHT22;6514;48.606;9.222;2022-09-01T01:08:22;13.30;99.90
12893;DHT22;6514;48.606;9.222;2022-09-01T01:10:55;13.30;99.90
12893;DHT22;6514;48.606;9.222;2022-09-01T01:13:22;13.30;99.90
12893;DHT22;6514;48.606;9.222;2022-09-01T01:15:50;13.30;99.90
12893;DHT22;6514;48.606;9.222;2022-09-01T01:18:17;13.30;99.90
12893;DHT22;6514;48.606;9.222;2022-09-01T01:20:45;13.20;99.90
12893;DHT22;6514;48.606;9.222;2022-09-01T01:23:38;13.20;99.90
12893;DHT22;6514;48.606;9.222;2022-09-01T01:26:08;13.20;99.90
12893;DHT22;6514;48.606;9.222;2022-09-01T01:28:37;13.20;99.90
12893;DHT22;6514;48.606;9.222;2022-09-01T01:31:06;13.10;99.90
12893;DHT22;6514;48.606;9.222;2022-09-01T01:33:38;13.10;99.90
12893;DHT22;6514;48.606;9.222;2022-09-01T01:36:07;13.00;99.90
12893;DHT22;6514;48.606;9.222;2022-09-01T01:38:37;13.00;99.90
12893;DHT22;6514;48.606;9.222;2022-09-01T01:41:08;13.10;99.90
12893;DHT22;6514;48.606;9.222;2022-09-01T01:43:35;13.10;99.90
12893;DHT22;6514;48.606;9.222;2022-09-01T01:46:08;13.10;99.90
12893;DHT22;6514;48.606;9.222;2022-09-01T01:48:37;13.10;99.90
12893;DHT22;6514;48.606;9.222;2022-09-01T01:51:05;13.10;99.90
12893;DHT22;6514;48.606;9.222;2022-09-01T01:53:32;13.00;99.90
12893;DHT22;6514;48.606;9.222;2022-09-01T01:55:59;13.00;99.90
12893;DHT22;6514;48.606;9.222;2022-09-01T01:58:28;12.90;99.90
12893;DHT22;6514;48.606;9.222;2022-09-01T02:00:56;13.00;99.90
12893;DHT22;6514;48.606;9.222;2022-09-01T02:03:31;13.00;99.90
12893;DHT22;6514;48.606;9.222;2022-09-01T02:06:05;13.00;99.90
12893;DHT22;6514;48.606;9.222;2022-09-01T02:08:34;13.00;99.90
12893;DHT22;6514;48.606;9.222;2022-09-01T02:11:02;13.00;99.90
12893;DHT22;6514;48.606;9.222;2022-09-01T02:13:31;13.00;99.90
12893;DHT22;6514;48.606;9.222;2022-09-01T02:16:01;13.00;99.90
12893;DHT22;6514;48.606;9.222;2022-09-01T02:18:31;13.20;99.90
12893;DHT22;6514;48.606;9.222;2022-09-01T02:21:01;13.20;99.90
12893;DHT22;6514;48.606;9.222;2022-09-01T02:23:28;13.20;99.90
12893;DHT22;6514;48.606;9.222;2022-09-01T02:25:58;13.10;99.90
12893;DHT22;6514;48.606;9.222;2022-09-01T02:28:28;13.10;99.90
12893;DHT22;6514;48.606;9.222;2022-09-01T02:30:57;13.10;99.90
12893;DHT22;6514;48.606;9.222;2022-09-01T02:33:27;13.10;99.90
12893;DHT22;6514;48.606;9.222;2022-09-01T02:35:57;13.00;99.90
12893;DHT22;6514;48.606;9.222;2022-09-01T02:38:25;13.00;99.90
12893;DHT22;6514;48.606;9.222;2022-09-01T02:40:54;12.90;99.90
12893;DHT22;6514;48.606;9.222;2022-09-01T02:43:21;13.00;99.90
12893;DHT22;6514;48.606;9.222;2022-09-01T02:45:48;12.90;99.90
12893;DHT22;6514;48.606;9.222;2022-09-01T02:48:24;12.90;99.90
12893;DHT22;6514;48.606;9.222;2022-09-01T02:50:51;12.90;99.90
12893;DHT22;6514;48.606;9.222;2022-09-01T02:53:21;12.80;99.90
12893;DHT22;6514;48.606;9.222;2022-09-01T02:55:48;12.80;99.90
12893;DHT22;6514;48.606;9.222;2022-09-01T02:58:16;12.80;99.90
12893;DHT22;6514;48.606;9.222;2022-09-01T03:00:44;12.80;99.90
12893;DHT22;6514;48.606;9.222;2022-09-01T03:03:12;12.80;99.90
12893;DHT22;6514;48.606;9.222;2022-09-01T03:05:43;12.80;99.90
12893;DHT22;6514;48.606;9.222;2022-09-01T03:08:11;12.80;99.90
12893;DHT22;6514;48.606;9.222;2022-09-01T03:10:43;12.80;99.90
12893;DHT22;6514;48.606;9.222;2022-09-01T03:13:13;12.80;99.90
12893;DHT22;6514;48.606;9.222;2022-09-01T03:15:41;12.70;99.90
12893;DHT22;6514;48.606;9.222;2022-09-01T03:18:10;12.70;99.90
12893;DHT22;6514;48.606;9.222;2022-09-01T03:20:39;12.70;99.90
12893;DHT22;6514;48.606;9.222;2022-09-01T03:23:11;12.50;99.90
12893;DHT22;6514;48.606;9.222;2022-09-01T03:25:39;12.60;99.90
12893;DHT22;6514;48.606;9.222;2022-09-01T03:28:07;12.60;99.90
12893;DHT22;6514;48.606;9.222;2022-09-01T03:30:35;12.60;99.90
12893;DHT22;6514;48.606;9.222;2022-09-01T03:33:06;12.50;99.90
12893;DHT22;6514;48.606;9.222;2022-09-01T03:35:33;12.50;99.90
12893;DHT22;6514;48.606;9.222;2022-09-01T03:38:01;12.50;99.90
12893;DHT22;6514;48.606;9.222;2022-09-01T03:40:31;12.50;99.90
12893;DHT22;6514;48.606;9.222;2022-09-01T03:42:59;12.50;99.90
12893;DHT22;6514;48.606;9.222;2022-09-01T03:45:26;12.50;99.90
12893;DHT22;6514;48.606;9.222;2022-09-01T03:47:54;12.50;99.90
12893;DHT22;6514;48.606;9.222;2022-09-01T03:50:23;12.50;99.90
12893;DHT22;6514;48.606;9.222;2022-09-01T03:52:53;12.60;99.90
12893;DHT22;6514;48.606;9.222;2022-09-01T03:55:23;12.70;99.90
12893;DHT22;6514;48.606;9.222;2022-09-01T03:57:54;12.70;99.90
12893;DHT22;6514;48.606;9.222;2022-09-01T04:00:23;12.90;99.90
12893;DHT22;6514;48.606;9.222;2022-09-01T04:02:53;13.00;99.90
12893;DHT22;6514;48.606;9.222;2022-09-01T04:05:22;13.10;99.90
12893;DHT22;6514;48.606;9.222;2022-09-01T04:07:53;13.20;99.90
12893;DHT22;6514;48.606;9.222;2022-09-01T04:10:20;13.30;99.90
12893;DHT22;6514;48.606;9.222;2022-09-01T04:12:48;13.30;99.90
12893;DHT22;6514;48.606;9.222;2022-09-01T04:15:17;13.40;99.90
12893;DHT22;6514;48.606;9.222;2022-09-01T04:17:44;13.40;99.90
12893;DHT22;6514;48.606;9.222;2022-09-01T04:20:28;13.50;99.90
12893;DHT22;6514;48.606;9.222;2022-09-01T04:23:04;13.50;99.90
12893;DHT22;6514;48.606;9.222;2022-09-01T04:25:35;13.60;99.90
12893;DHT22;6514;48.606;9.222;2022-09-01T04:28:04;13.60;99.90
12893;DHT22;6514;48.606;9.222;2022-09-01T04:30:39;13.70;99.90
12893;DHT22;6514;48.606;9.222;2022-09-01T04:33:07;13.70;99.90
12893;DHT22;6514;48.606;9.222;2022-09-01T04:35:37;13.70;99.90
12893;DHT22;6514;48.606;9.222;2022-09-01T04:38:05;13.70;99.90
12893;DHT22;6514;48.606;9.222;2022-09-01T04:40:35;13.70;99.90
12893;DHT22;6514;48.606;9.222;2022-09-01T04:43:03;13.70;99.90
12893;DHT22;6514;48.606;9.222;2022-09-01T04:45:30;13.70;99.90
12893;DHT22;6514;48.606;9.222;2022-09-01T04:48:00;13.70;99.90
12893;DHT22;6514;48.606;9.222;2022-09-01T04:50:28;13.70;99.90
12893;DHT22;6514;48.606;9.222;2022-09-01T04:52:56;13.70;99.90
12893;DHT22;6514;48.606;9.222;2022-09-01T04:55:25;13.70;99.90
12893;DHT22;6514;48.606;9.222;2022-09-01T04:57:55;13.60;99.90
12893;DHT22;6514;48.606;9.222;2022-09-01T05:00:24;13.60;99.90
12893;DHT22;6514;48.606;9.222;2022-09-01T05:02:54;13.50;99.90
12893;DHT22;6514;48.606;9.222;2022-09-01T05:05:35;13.50;99.90
12893;DHT22;6514;48.606;9.222;2022-09-01T05:08:04;13.40;99.90
12893;DHT22;6514;48.606;9.222;2022-09-01T05:10:31;13.40;99.90
12893;DHT22;6514;48.606;9.222;2022-09-01T05:13:00;13.40;99.90
12893;DHT22;6514;48.606;9.222;2022-09-01T05:15:35;13.40;99.90
12893;DHT22;6514;48.606;9.222;2022-09-01T05:18:01;13.40;99.90
12893;DHT22;6514;48.606;9.222;2022-09-01T05:20:37;13.40;99.90
12893;DHT22;6514;48.606;9.222;2022-09-01T05:23:08;13.40;99.90
12893;DHT22;6514;48.606;9.222;2022-09-01T05:25:38;13.40;99.90
12893;DHT22;6514;48.606;9.222;2022-09-01T05:28:07;13.40;99.90
12893;DHT22;6514;48.606;9.222;2022-09-01T05:30:37;13.40;99.90
12893;DHT22;6514;48.606;9.222;2022-09-01T05:33:04;13.50;99.90
12893;DHT22;6514;48.606;9.222;2022-09-01T05:35:38;13.50;99.90
12893;DHT22;6514;48.606;9.222;2022-09-01T05:38:10;13.40;99.90
12893;DHT22;6514;48.606;9.222;2022-09-01T05:40:40;13.50;99.90
12893;DHT22;6514;48.606;9.222;2022-09-01T05:43:09;13.50;99.90
12893;DHT22;6514;48.606;9.222;2022-09-01T05:45:38;13.50;99.90
12893;DHT22;6514;48.606;9.222;2022-09-01T05:48:07;13.60;99.90
12893;DHT22;6514;48.606;9.222;2022-09-01T05:50:37;13.60;99.90
12893;DHT22;6514;48.606;9.222;2022-09-01T05:53:06;13.60;99.90
12893;DHT22;6514;48.606;9.222;2022-09-01T05:55:41;13.70;99.90
12893;DHT22;6514;48.606;9.222;2022-09-01T05:58:10;13.80;99.90
12893;DHT22;6514;48.606;9.222;2022-09-01T06:00:39;14.00;99.90
12893;DHT22;6514;48.606;9.222;2022-09-01T06:03:08;14.20;99.90
12893;DHT22;6514;48.606;9.222;2022-09-01T06:05:35;14.30;99.90
12893;DHT22;6514;48.606;9.222;2022-09-01T06:08:03;14.50;99.90
12893;DHT22;6514;48.606;9.222;2022-09-01T06:10:34;14.50;99.90
12893;DHT22;6514;48.606;9.222;2022-09-01T06:13:05;14.70;99.90
12893;DHT22;6514;48.606;9.222;2022-09-01T06:15:33;14.80;99.90
12893;DHT22;6514;48.606;9.222;2022-09-01T06:18:01;15.00;99.90
12893;DHT22;6514;48.606;9.222;2022-09-01T06:20:28;15.20;99.90
12893;DHT22;6514;48.606;9.222;2022-09-01T06:22:55;15.40;99.90
12893;DHT22;6514;48.606;9.222;2022-09-01T06:25:22;15.60;99.90
12893;DHT22;6514;48.606;9.222;2022-09-01T06:27:52;15.60;99.90
12893;DHT22;6514;48.606;9.222;2022-09-01T06:30:19;15.60;99.90
12893;DHT22;6514;48.606;9.222;2022-09-01T06:32:51;15.70;99.90
12893;DHT22;6514;48.606;9.222;2022-09-01T06:35:19;15.70;99.90
12893;DHT22;6514;48.606;9.222;2022-09-01T06:37:46;15.80;99.90
12893;DHT22;6514;48.606;9.222;2022-09-01T06:40:15;16.10;99.90
12893;DHT22;6514;48.606;9.222;2022-09-01T06:42:43;16.30;99.90
12893;DHT22;6514;48.606;9.222;2022-09-01T06:45:13;16.70;99.90
12893;DHT22;6514;48.606;9.222;2022-09-01T06:47:41;17.10;99.90
12893;DHT22;6514;48.606;9.222;2022-09-01T06:50:10;17.50;99.90
12893;DHT22;6514;48.606;9.222;2022-09-01T06:52:37;17.70;99.90
12893;DHT22;6514;48.606;9.222;2022-09-01T06:55:05;18.00;99.90
12893;DHT22;6514;48.606;9.222;2022-09-01T06:57:32;18.00;99.90
12893;DHT22;6514;48.606;9.222;2022-09-01T07:00:00;17.90;99.90
12893;DHT22;6514;48.606;9.222;2022-09-01T07:02:41;17.80;99.90
12893;DHT22;6514;48.606;9.222;2022-09-01T07:05:09;17.70;99.90
12893;DHT22;6514;48.606;9.222;2022-09-01T07:07:36;17.60;99.90
12893;DHT22;6514;48.606;9.222;2022-09-01T07:10:04;17.60;99.90
12893;DHT22;6514;48.606;9.222;2022-09-01T07:12:31;17.70;99.90
12893;DHT22;6514;48.606;9.222;2022-09-01T07:14:57;17.70;99.90
12893;DHT22;6514;48.606;9.222;2022-09-01T07:17:25;17.80;99.90
12893;DHT22;6514;48.606;9.222;2022-09-01T07:19:56;17.90;99.90
12893;DHT22;6514;48.606;9.222;2022-09-01T07:22:23;17.90;99.90
12893;DHT22;6514;48.606;9.222;2022-09-01T07:24:50;17.90;99.90
12893;DHT22;6514;48.606;9.222;2022-09-01T07:27:21;17.90;99.90
12893;DHT22;6514;48.606;9.222;2022-09-01T07:29:53;18.00;99.90
12893;DHT22;6514;48.606;9.222;2022-09-01T07:32:21;18.00;99.90
12893;DHT22;6514;48.606;9.222;2022-09-01T07:34:48;18.00;99.90
12893;DHT22;6514;48.606;9.222;2022-09-01T07:37:18;18.00;99.90
12893;DHT22;6514;48.606;9.222;2022-09-01T07:39:47;17.90;99.90
12893;DHT22;6514;48.606;9.222;2022-09-01T07:42:16;18.00;99.90
12893;DHT22;6514;48.606;9.222;2022-09-01T07:44:43;18.10;99.90
12893;DHT22;6514;48.606;9.222;2022-09-01T07:47:10;18.10;99.90
12893;DHT22;6514;48.606;9.222;2022-09-01T07:49:40;18.20;99.90
12893;DHT22;6514;48.606;9.222;2022-09-01T07:52:07;18.30;99.90
12893;DHT22;6514;48.606;9.222;2022-09-01T07:54:36;18.40;99.90
12893;DHT22;6514;48.606;9.222;2022-09-01T07:57:03;18.60;99.90
12893;DHT22;6514;48.606;9.222;2022-09-01T07:59:30;18.80;99.90
12893;DHT22;6514;48.606;9.222;2022-09-01T08:01:58;18.90;99.90
12893;DHT22;6514;48.606;9.222;2022-09-01T08:04:30;19.00;99.90
12893;DHT22;6514;48.606;9.222;2022-09-01T08:06:58;19.10;99.90
12893;DHT22;6514;48.606;9.222;2022-09-01T08:09:25;19.30;99.90
12893;DHT22;6514;48.606;9.222;2022-09-01T08:11:54;19.70;99.90
12893;DHT22;6514;48.606;9.222;2022-09-01T08:14:20;20.00;99.90
12893;DHT22;6514;48.606;9.222;2022-09-01T08:16:47;20.20;99.90
12893;DHT22;6514;48.606;9.222;2022-09-01T08:19:14;20.40;99.90
12893;DHT22;6514;48.606;9.222;2022-09-01T08:21:42;20.70;99.90
12893;DHT22;6514;48.606;9.222;2022-09-01T08:24:09;20.90;99.90
12893;DHT22;6514;48.606;9.222;2022-09-01T08:26:36;21.00;99.90
12893;DHT22;6514;48.606;9.222;2022-09-01T08:29:04;21.10;99.90
12893;DHT22;6514;48.606;9.222;2022-09-01T08:31:31;20.90;99.90
12893;DHT22;6514;48.606;9.222;2022-09-01T08:34:00;21.00;99.90
12893;DHT22;6514;48.606;9.222;2022-09-01T08:36:29;21.20;99.90
12893;DHT22;6514;48.606;9.222;2022-09-01T08:38:57;21.30;99.90
12893;DHT22;6514;48.606;9.222;2022-09-01T08:41:34;21.50;99.90
12893;DHT22;6514;48.606;9.222;2022-09-01T08:44:12;21.80;99.90
12893;DHT22;6514;48.606;9.222;2022-09-01T08:46:43;22.00;99.90
12893;DHT22;6514;48.606;9.222;2022-09-01T08:49:14;22.50;99.90
12893;DHT22;6514;48.606;9.222;2022-09-01T08:51:47;23.00;99.90
12893;DHT22;6514;48.606;9.222;2022-09-01T08:54:21;23.40;99.90
12893;DHT22;6514;48.606;9.222;2022-09-01T08:56:51;23.60;99.90
12893;DHT22;6514;48.606;9.222;2022-09-01T08:59:20;23.60;99.90
12893;DHT22;6514;48.606;9.222;2022-09-01T09:01:52;23.80;99.90
12893;DHT22;6514;48.606;9.222;2022-09-01T09:04:39;23.90;99.90
12893;DHT22;6514;48.606;9.222;2022-09-01T09:07:19;24.00;99.90
12893;DHT22;6514;48.606;9.222;2022-09-01T09:09:52;23.80;99.90
12893;DHT22;6514;48.606;9.222;2022-09-01T09:12:32;23.60;99.90
12893;DHT22;6514;48.606;9.222;2022-09-01T09:15:09;23.30;99.90
12893;DHT22;6514;48.606;9.222;2022-09-01T09:17:44;23.00;99.90
12893;DHT22;6514;48.606;9.222;2022-09-01T09:20:13;22.90;99.90
12893;DHT22;6514;48.606;9.222;2022-09-01T09:22:41;23.00;99.90
12893;DHT22;6514;48.606;9.222;2022-09-01T09:25:10;23.50;99.90
12893;DHT22;6514;48.606;9.222;2022-09-01T09:27:40;23.90;99.90
12893;DHT22;6514;48.606;9.222;2022-09-01T09:30:11;23.70;99.90
12893;DHT22;6514;48.606;9.222;2022-09-01T09:32:44;23.60;99.90
12893;DHT22;6514;48.606;9.222;2022-09-01T09:35:33;24.10;99.90
12893;DHT22;6514;48.606;9.222;2022-09-01T09:38:16;24.40;99.90
12893;DHT22;6514;48.606;9.222;2022-09-01T09:41:01;24.40;99.90
12893;DHT22;6514;48.606;9.222;2022-09-01T09:43:31;24.80;99.90
12893;DHT22;6514;48.606;9.222;2022-09-01T09:46:25;24.90;99.90
12893;DHT22;6514;48.606;9.222;2022-09-01T09:49:10;24.80;99.90
12893;DHT22;6514;48.606;9.222;2022-09-01T09:51:39;24.60;99.90
12893;DHT22;6514;48.606;9.222;2022-09-01T09:54:15;24.50;99.90
12893;DHT22;6514;48.606;9.222;2022-09-01T09:56:44;24.40;99.90
12893;DHT22;6514;48.606;9.222;2022-09-01T09:59:17;24.40;99.90
12893;DHT22;6514;48.606;9.222;2022-09-01T10:01:46;24.50;99.90
12893;DHT22;6514;48.606;9.222;2022-09-01T10:04:32;24.30;99.90
12893;DHT22;6514;48.606;9.222;2022-09-01T10:06:59;24.20;99.90
12893;DHT22;6514;48.606;9.222;2022-09-01T10:09:34;23.80;99.90
12893;DHT22;6514;48.606;9.222;2022-09-01T10:12:02;23.50;99.90
12893;DHT22;6514;48.606;9.222;2022-09-01T10:14:34;23.40;99.90
12893;DHT22;6514;48.606;9.222;2022-09-01T10:17:10;23.40;99.90
12893;DHT22;6514;48.606;9.222;2022-09-01T10:19:42;23.50;99.90
12893;DHT22;6514;48.606;9.222;2022-09-01T10:22:11;23.70;99.90
12893;DHT22;6514;48.606;9.222;2022-09-01T10:24:38;24.00;99.90
12893;DHT22;6514;48.606;9.222;2022-09-01T10:27:10;24.10;99.90
12893;DHT22;6514;48.606;9.222;2022-09-01T10:29:41;24.10;99.90
12893;DHT22;6514;48.606;9.222;2022-09-01T10:32:15;23.80;99.90
12893;DHT22;6514;48.606;9.222;2022-09-01T10:34:44;23.80;99.90
12893;DHT22;6514;48.606;9.222;2022-09-01T10:37:12;24.20;99.90
12893;DHT22;6514;48.606;9.222;2022-09-01T10:40:14;24.20;99.90
12893;DHT22;6514;48.606;9.222;2022-09-01T10:42:43;24.40;99.90
12893;DHT22;6514;48.606;9.222;2022-09-01T10:45:19;24.60;99.90
12893;DHT22;6514;48.606;9.222;2022-09-01T10:47:56;24.80;99.90
12893;DHT22;6514;48.606;9.222;2022-09-01T10:50:26;24.60;99.90
12893;DHT22;6514;48.606;9.222;2022-09-01T10:53:05;24.70;99.90
12893;DHT22;6514;48.606;9.222;2022-09-01T10:55:45;24.60;99.90
12893;DHT22;6514;48.606;9.222;2022-09-01T11:01:13;24.80;99.90
12893;DHT22;6514;48.606;9.222;2022-09-01T11:03:59;24.50;99.90
12893;DHT22;6514;48.606;9.222;2022-09-01T11:09:32;24.20;99.90
12893;DHT22;6514;48.606;9.222;2022-09-01T11:12:27;24.90;99.90
12893;DHT22;6514;48.606;9.222;2022-09-01T11:15:03;25.50;99.90
12893;DHT22;6514;48.606;9.222;2022-09-01T11:17:33;26.30;99.90
12893;DHT22;6514;48.606;9.222;2022-09-01T11:20:08;26.80;99.90
12893;DHT22;6514;48.606;9.222;2022-09-01T11:22:37;27.00;99.90
12893;DHT22;6514;48.606;9.222;2022-09-01T11:25:12;27.30;99.90
12893;DHT22;6514;48.606;9.222;2022-09-01T11:28:01;27.70;99.90
12893;DHT22;6514;48.606;9.222;2022-09-01T11:30:40;28.00;99.90
12893;DHT22;6514;48.606;9.222;2022-09-01T11:33:31;28.20;99.90
12893;DHT22;6514;48.606;9.222;2022-09-01T11:36:03;28.00;99.90
12893;DHT22;6514;48.606;9.222;2022-09-01T11:38:37;28.00;99.90
12893;DHT22;6514;48.606;9.222;2022-09-01T11:41:22;28.20;99.90
12893;DHT22;6514;48.606;9.222;2022-09-01T11:43:55;28.30;99.90
12893;DHT22;6514;48.606;9.222;2022-09-01T11:46:28;28.10;99.90
12893;DHT22;6514;48.606;9.222;2022-09-01T11:49:02;27.90;99.90
12893;DHT22;6514;48.606;9.222;2022-09-01T11:51:41;28.10;99.90
12893;DHT22;6514;48.606;9.222;2022-09-01T11:54:10;28.00;99.90
12893;DHT22;6514;48.606;9.222;2022-09-01T11:56:37;28.40;99.90
12893;DHT22;6514;48.606;9.222;2022-09-01T11:59:04;28.70;99.90
12893;DHT22;6514;48.606;9.222;2022-09-01T12:01:33;28.80;99.90
12893;DHT22;6514;48.606;9.222;2022-09-01T12:04:19;28.80;99.90
12893;DHT22;6514;48.606;9.222;2022-09-01T12:06:54;28.80;99.90
12893;DHT22;6514;48.606;9.222;2022-09-01T12:09:31;29.10;99.90
12893;DHT22;6514;48.606;9.222;2022-09-01T12:11:59;29.50;99.90
12893;DHT22;6514;48.606;9.222;2022-09-01T12:14:26;29.60;99.90
12893;DHT22;6514;48.606;9.222;2022-09-01T12:16:58;29.30;99.90
12893;DHT22;6514;48.606;9.222;2022-09-01T12:19:28;28.80;99.90
12893;DHT22;6514;48.606;9.222;2022-09-01T12:21:59;28.90;99.90
12893;DHT22;6514;48.606;9.222;2022-09-01T12:24:29;29.00;99.90
12893;DHT22;6514;48.606;9.222;2022-09-01T12:26:58;29.00;99.90
12893;DHT22;6514;48.606;9.222;2022-09-01T12:29:26;29.30;99.90
12893;DHT22;6514;48.606;9.222;2022-09-01T12:31:54;29.40;99.90
12893;DHT22;6514;48.606;9.222;2022-09-01T12:34:39;29.80;99.90
12893;DHT22;6514;48.606;9.222;2022-09-01T12:37:11;29.60;99.90
12893;DHT22;6514;48.606;9.222;2022-09-01T12:39:46;29.40;99.90
12893;DHT22;6514;48.606;9.222;2022-09-01T12:42:23;29.30;99.90
12893;DHT22;6514;48.606;9.222;2022-09-01T12:44:53;29.40;99.90
12893;DHT22;6514;48.606;9.222;2022-09-01T12:47:43;29.70;99.90
12893;DHT22;6514;48.606;9.222;2022-09-01T12:50:34;29.70;99.90
12893;DHT22;6514;48.606;9.222;2022-09-01T12:53:16;29.80;99.90
12893;DHT22;6514;48.606;9.222;2022-09-01T12:55:56;29.50;99.90
12893;DHT22;6514;48.606;9.222;2022-09-01T12:58:26;29.70;99.90
12893;DHT22;6514;48.606;9.222;2022-09-01T13:00:56;30.00;99.90
12893;DHT22;6514;48.606;9.222;2022-09-01T13:03:24;30.10;99.90
12893;DHT22;6514;48.606;9.222;2022-09-01T13:05:53;29.70;99.90
12893;DHT22;6514;48.606;9.222;2022-09-01T13:08:24;29.40;99.90
12893;DHT22;6514;48.606;9.222;2022-09-01T13:10:53;29.30;99.90
12893;DHT22;6514;48.606;9.222;2022-09-01T13:13:22;28.80;99.90
12893;DHT22;6514;48.606;9.222;2022-09-01T13:15:54;28.00;99.90
12893;DHT22;6514;48.606;9.222;2022-09-01T13:18:24;27.20;99.90
12893;DHT22;6514;48.606;9.222;2022-09-01T13:20:56;26.50;99.90
12893;DHT22;6514;48.606;9.222;2022-09-01T13:23:25;26.00;99.90
12893;DHT22;6514;48.606;9.222;2022-09-01T13:25:53;25.60;99.90
12893;DHT22;6514;48.606;9.222;2022-09-01T13:28:20;25.30;99.90
12893;DHT22;6514;48.606;9.222;2022-09-01T13:30:53;25.20;99.90
12893;DHT22;6514;48.606;9.222;2022-09-01T13:33:21;25.10;99.90
12893;DHT22;6514;48.606;9.222;2022-09-01T13:35:48;25.10;99.90
12893;DHT22;6514;48.606;9.222;2022-09-01T13:38:16;25.00;99.90
12893;DHT22;6514;48.606;9.222;2022-09-01T13:40:46;24.60;99.90
12893;DHT22;6514;48.606;9.222;2022-09-01T13:43:14;24.60;99.90
12893;DHT22;6514;48.606;9.222;2022-09-01T13:45:42;24.70;99.90
12893;DHT22;6514;48.606;9.222;2022-09-01T13:48:09;24.70;99.90
12893;DHT22;6514;48.606;9.222;2022-09-01T13:50:37;24.50;99.90
12893;DHT22;6514;48.606;9.222;2022-09-01T13:53:05;24.50;99.90
12893;DHT22;6514;48.606;9.222;2022-09-01T13:55:35;24.60;99.90
12893;DHT22;6514;48.606;9.222;2022-09-01T13:58:06;24.90;99.90
12893;DHT22;6514;48.606;9.222;2022-09-01T14:00:35;25.00;99.90
12893;DHT22;6514;48.606;9.222;2022-09-01T14:03:06;25.10;99.90
12893;DHT22;6514;48.606;9.222;2022-09-01T14:05:36;25.20;99.90
12893;DHT22;6514;48.606;9.222;2022-09-01T14:08:04;25.60;99.90
12893;DHT22;6514;48.606;9.222;2022-09-01T14:10:36;25.90;99.90
12893;DHT22;6514;48.606;9.222;2022-09-01T14:13:04;26.10;99.90
12893;DHT22;6514;48.606;9.222;2022-09-01T14:15:32;25.90;99.90
12893;DHT22;6514;48.606;9.222;2022-09-01T14:18:00;25.70;99.90
12893;DHT22;6514;48.606;9.222;2022-09-01T14:20:29;25.70;99.90
12893;DHT22;6514;48.606;9.222;2022-09-01T14:22:57;25.60;99.90
12893;DHT22;6514;48.606;9.222;2022-09-01T14:25:24;25.60;99.90
12893;DHT22;6514;48.606;9.222;2022-09-01T14:27:52;25.60;99.90
12893;DHT22;6514;48.606;9.222;2022-09-01T14:30:22;25.30;99.90
12893;DHT22;6514;48.606;9.222;2022-09-01T14:32:50;25.60;99.90
12893;DHT22;6514;48.606;9.222;2022-09-01T14:35:20;25.90;99.90
12893;DHT22;6514;48.606;9.222;2022-09-01T14:37:49;25.90;99.90
12893;DHT22;6514;48.606;9.222;2022-09-01T14:40:20;25.70;99.90
12893;DHT22;6514;48.606;9.222;2022-09-01T14:42:49;25.30;99.90
12893;DHT22;6514;48.606;9.222;2022-09-01T14:45:21;25.00;99.90
12893;DHT22;6514;48.606;9.222;2022-09-01T14:47:50;24.90;99.90
12893;DHT22;6514;48.606;9.222;2022-09-01T14:50:18;24.90;99.90
12893;DHT22;6514;48.606;9.222;2022-09-01T14:52:48;24.90;99.90
12893;DHT22;6514;48.606;9.222;2022-09-01T14:55:15;24.80;99.90
12893;DHT22;6514;48.606;9.222;2022-09-01T14:57:43;25.00;99.90
12893;DHT22;6514;48.606;9.222;2022-09-01T15:00:11;25.00;99.90
12893;DHT22;6514;48.606;9.222;2022-09-01T15:02:41;24.80;99.90
12893;DHT22;6514;48.606;9.222;2022-09-01T15:05:09;24.70;99.90
12893;DHT22;6514;48.606;9.222;2022-09-01T15:07:37;24.80;99.90
12893;DHT22;6514;48.606;9.222;2022-09-01T15:10:05;25.10;99.90
12893;DHT22;6514;48.606;9.222;2022-09-01T15:12:33;25.40;99.90
12893;DHT22;6514;48.606;9.222;2022-09-01T15:15:01;25.30;99.90
12893;DHT22;6514;48.606;9.222;2022-09-01T15:17:28;25.20;99.90
12893;DHT22;6514;48.606;9.222;2022-09-01T15:19:56;25.20;99.90
12893;DHT22;6514;48.606;9.222;2022-09-01T15:22:44;25.40;99.90
12893;DHT22;6514;48.606;9.222;2022-09-01T15:25:12;25.80;99.90
12893;DHT22;6514;48.606;9.222;2022-09-01T15:27:39;26.00;99.90
12893;DHT22;6514;48.606;9.222;2022-09-01T15:30:07;26.20;99.90
12893;DHT22;6514;48.606;9.222;2022-09-01T15:32:39;26.20;99.90
12893;DHT22;6514;48.606;9.222;2022-09-01T15:35:08;26.20;99.90
12893;DHT22;6514;48.606;9.222;2022-09-01T15:37:35;26.10;99.90
12893;DHT22;6514;48.606;9.222;2022-09-01T15:40:03;26.00;99.90
12893;DHT22;6514;48.606;9.222;2022-09-01T15:42:32;26.00;99.90
12893;DHT22;6514;48.606;9.222;2022-09-01T15:45:00;26.00;99.90
12893;DHT22;6514;48.606;9.222;2022-09-01T15:47:28;26.00;99.90
12893;DHT22;6514;48.606;9.222;2022-09-01T15:49:55;26.00;99.90
12893;DHT22;6514;48.606;9.222;2022-09-01T15:52:24;25.90;99.90
12893;DHT22;6514;48.606;9.222;2022-09-01T15:54:52;25.80;99.90
12893;DHT22;6514;48.606;9.222;2022-09-01T15:57:19;25.60;99.90
12893;DHT22;6514;48.606;9.222;2022-09-01T15:59:46;25.50;99.90
12893;DHT22;6514;48.606;9.222;2022-09-01T16:02:13;25.40;99.90
12893;DHT22;6514;48.606;9.222;2022-09-01T16:04:42;25.30;99.90
12893;DHT22;6514;48.606;9.222;2022-09-01T16:07:09;25.20;99.90
12893;DHT22;6514;48.606;9.222;2022-09-01T16:12:05;24.90;99.90
12893;DHT22;6514;48.606;9.222;2022-09-01T16:14:32;24.90;99.90